createdAt,value
2022-09-03T00:00:46.283Z,13.79
2022-09-03T00:02:48.159Z,13.81
2022-09-03T00:04:49.981Z,13.7
2022-09-03T00:06:51.819Z,13.59
2022-09-03T00:08:53.739Z,13.53
2022-09-03T00:10:55.491Z,13.73
2022-09-03T00:12:57.175Z,13.75
2022-09-03T00:14:58.880Z,13.37
2022-09-03T00:17:00.663Z,13.36
2022-09-03T00:19:02.238Z,13.37
2022-09-03T00:21:03.830Z,13.32
2022-09-03T00:23:05.267Z,13.45
2022-09-03T00:25:06.631Z,13.35
2022-09-03T00:27:07.977Z,13.48
2022-09-03T00:29:09.822Z,13.4
2022-09-03T00:31:11.649Z,13.27
2022-09-03T00:33:13.266Z,13.5
2022-09-03T00:35:15.038Z,13.36
2022-09-03T00:37:16.513Z,13.32
2022-09-03T00:39:18.080Z,13.29
2022-09-03T00:41:19.698Z,13.15
2022-09-03T00:43:20.656Z,13.05
2022-09-03T00:45:22.047Z,12.87
2022-09-03T00:47:23.974Z,12.86
2022-09-03T00:49:25.322Z,12.91
2022-09-03T00:51:26.832Z,12.82
2022-09-03T00:53:28.489Z,12.86
2022-09-03T00:55:30.335Z,12.86
2022-09-03T00:57:32.153Z,12.87
2022-09-03T00:59:33.854Z,12.83
2022-09-03T01:01:34.929Z,12.86
2022-09-03T01:03:36.689Z,13.07
2022-09-03T01:05:37.662Z,12.97
2022-09-03T01:07:39.492Z,12.85
2022-09-03T01:09:41.102Z,12.78
2022-09-03T01:11:42.472Z,12.75
2022-09-03T01:13:44.202Z,12.78
2022-09-03T01:15:45.636Z,12.83
2022-09-03T01:17:47.297Z,12.92
2022-09-03T01:19:49.107Z,12.8
2022-09-03T01:21:50.915Z,12.55
2022-09-03T01:23:52.090Z,12.53
2022-09-03T01:25:53.467Z,12.58
2022-09-03T01:27:54.990Z,12.6
2022-09-03T01:29:56.462Z,12.6
2022-09-03T01:31:57.743Z,12.63
2022-09-03T01:33:58.787Z,12.59
2022-09-03T01:36:00.735Z,12.5
2022-09-03T01:38:02.493Z,12.32
2022-09-03T01:40:03.901Z,12.39
2022-09-03T01:42:04.877Z,12.56
2022-09-03T01:44:06.385Z,12.56
2022-09-03T01:46:07.711Z,12.59
2022-09-03T01:48:08.815Z,12.59
2022-09-03T01:50:10.255Z,12.68
2022-09-03T01:52:11.868Z,12.69
2022-09-03T01:54:18.169Z,12.75
2022-09-03T01:56:15.154Z,12.85
2022-09-03T01:58:16.667Z,12.76
2022-09-03T02:00:17.930Z,12.69
2022-09-03T02:02:19.951Z,12.72
2022-09-03T02:04:21.076Z,12.73
2022-09-03T02:06:22.290Z,12.55
2022-09-03T02:08:24.216Z,12.9
2022-09-03T02:10:25.855Z,13.26
2022-09-03T02:12:27.320Z,13.13
2022-09-03T02:14:28.943Z,13
2022-09-03T02:16:29.955Z,12.9
2022-09-03T02:18:31.115Z,12.83
2022-09-03T02:20:32.973Z,12.65
2022-09-03T02:22:34.238Z,12.5
2022-09-03T02:24:35.502Z,12.29
2022-09-03T02:26:37.265Z,12.5
2022-09-03T02:28:38.541Z,12.46
2022-09-03T02:30:39.971Z,12.38
2022-09-03T02:32:41.256Z,12.32
2022-09-03T02:34:42.377Z,12.49
2022-09-03T02:36:44.022Z,12.56
2022-09-03T02:38:45.369Z,12.66
2022-09-03T02:40:47.108Z,12.59
2022-09-03T02:42:48.155Z,12.48
2022-09-03T02:44:49.404Z,12.35
2022-09-03T02:46:51.048Z,12.44
2022-09-03T02:48:52.033Z,12.42
2022-09-03T02:50:53.655Z,12.29
2022-09-03T02:52:55.044Z,12.08
2022-09-03T02:54:56.850Z,12.04
2022-09-03T02:59:00.112Z,11.99
2022-09-03T03:01:02.001Z,12.01
2022-09-03T03:03:03.479Z,12.05
2022-09-03T03:05:05.212Z,12.07
2022-09-03T03:07:06.855Z,12.19
2022-09-03T03:09:08.436Z,12.09
2022-09-03T03:11:09.983Z,12.07
2022-09-03T03:13:11.430Z,12.08
2022-09-03T03:15:12.573Z,12.08
2022-09-03T03:17:14.288Z,12.06
2022-09-03T03:19:15.504Z,12.24
2022-09-03T03:21:16.983Z,12.33
2022-09-03T03:23:18.215Z,12.45
2022-09-03T03:25:19.969Z,12.54
2022-09-03T03:27:21.413Z,12.55
2022-09-03T03:29:23.171Z,12.52
2022-09-03T03:31:24.329Z,12.64
2022-09-03T03:33:26.071Z,12.58
2022-09-03T03:35:27.197Z,12.65
2022-09-03T03:37:28.727Z,12.5
2022-09-03T03:39:30.327Z,12.32
2022-09-03T03:41:31.817Z,12.37
2022-09-03T03:43:33.179Z,12.34
2022-09-03T03:45:34.969Z,12.38
2022-09-03T03:47:36.051Z,12.34
2022-09-03T03:49:37.531Z,12.43
2022-09-03T03:51:38.617Z,12.42
2022-09-03T03:53:39.723Z,12.47
2022-09-03T03:55:40.725Z,12.5
2022-09-03T03:57:42.091Z,12.53
2022-09-03T03:59:43.464Z,12.44
2022-09-03T04:01:45.111Z,12.45
2022-09-03T04:03:46.263Z,12.26
2022-09-03T04:05:48.528Z,12.25
2022-09-03T04:07:49.247Z,12.43
2022-09-03T04:09:50.320Z,12.72
2022-09-03T04:11:51.407Z,12.78
2022-09-03T04:13:52.559Z,12.8
2022-09-03T04:15:53.593Z,12.37
2022-09-03T04:17:55.274Z,12.33
2022-09-03T04:19:56.710Z,12.34
2022-09-03T04:21:58.062Z,12.35
2022-09-03T04:23:59.044Z,12.39
2022-09-03T04:26:00.636Z,12.53
2022-09-03T04:28:01.643Z,12.5
2022-09-03T04:30:03.241Z,12.42
2022-09-03T04:32:04.516Z,12.5
2022-09-03T04:34:05.592Z,12.71
2022-09-03T04:36:06.609Z,12.86
2022-09-03T04:38:07.938Z,12.9
2022-09-03T04:40:09.504Z,12.93
2022-09-03T04:42:11.093Z,12.8
2022-09-03T04:44:12.122Z,12.8
2022-09-03T04:46:16.075Z,12.8
2022-09-03T04:48:15.689Z,12.82
2022-09-03T04:50:17.530Z,12.85
2022-09-03T04:52:18.521Z,12.91
2022-09-03T04:54:19.533Z,12.86
2022-09-03T04:56:20.998Z,12.86
2022-09-03T04:58:21.996Z,12.83
2022-09-03T05:00:22.970Z,12.81
2022-09-03T05:02:24.748Z,12.87
2022-09-03T05:04:25.820Z,12.87
2022-09-03T05:06:26.863Z,13
2022-09-03T05:08:37.518Z,13.03
2022-09-03T05:10:29.748Z,13.09
2022-09-03T05:12:31.402Z,13.13
2022-09-03T05:14:33.043Z,13.25
2022-09-03T05:16:34.898Z,13.3
2022-09-03T05:18:36.452Z,13.26
2022-09-03T05:20:37.798Z,13.25
2022-09-03T05:22:39.028Z,13.31
2022-09-03T05:24:40.593Z,13.31
2022-09-03T05:26:41.601Z,13.34
2022-09-03T05:28:42.726Z,13.36
2022-09-03T05:30:44.118Z,13.4
2022-09-03T05:32:45.214Z,13.43
2022-09-03T05:34:47.041Z,13.51
2022-09-03T05:36:48.659Z,13.54
2022-09-03T05:38:49.835Z,13.65
2022-09-03T05:40:51.445Z,13.75
2022-09-03T05:43:03.353Z,13.74
2022-09-03T05:44:54.049Z,13.79
2022-09-03T05:46:55.799Z,13.83
2022-09-03T05:48:56.829Z,13.88
2022-09-03T05:50:58.079Z,14.03
2022-09-03T05:52:59.357Z,14.11
2022-09-03T05:55:00.393Z,14.23
2022-09-03T05:57:01.826Z,14.47
2022-09-03T05:59:02.770Z,14.19
2022-09-03T06:01:04.232Z,14.29
2022-09-03T06:03:06.140Z,14.62
2022-09-03T06:05:07.109Z,14.7
2022-09-03T06:07:08.585Z,14.56
2022-09-03T06:09:10.109Z,14.63
2022-09-03T06:11:11.150Z,14.81
2022-09-03T06:13:12.504Z,14.92
2022-09-03T06:15:13.648Z,15.05
2022-09-03T06:17:15.071Z,14.95
2022-09-03T06:19:16.162Z,15.06
2022-09-03T06:21:17.940Z,15.36
2022-09-03T06:22:27.950Z,15.72
2022-09-03T06:24:29.701Z,15.48
2022-09-03T06:26:30.856Z,15.46
2022-09-03T06:28:32.253Z,15.25
2022-09-03T06:30:33.620Z,15.26
2022-09-03T06:32:35.109Z,15.42
2022-09-03T06:34:36.093Z,15.57
2022-09-03T06:36:37.171Z,15.66
2022-09-03T06:38:38.681Z,15.69
2022-09-03T06:40:40.233Z,15.59
2022-09-03T06:42:41.963Z,15.61
2022-09-03T06:44:43.787Z,15.76
2022-09-03T06:46:44.989Z,15.88
2022-09-03T06:48:46.099Z,16.07
2022-09-03T06:50:47.542Z,16.35
2022-09-03T06:52:48.437Z,16.71
2022-09-03T06:54:49.553Z,17.09
2022-09-03T06:56:50.852Z,17.49
2022-09-03T06:58:52.609Z,17.38
2022-09-03T07:00:53.887Z,17.38
2022-09-03T07:02:55.089Z,17.28
2022-09-03T07:04:56.099Z,17.32
2022-09-03T07:06:57.470Z,17.38
2022-09-03T07:08:58.579Z,17.51
2022-09-03T07:11:00.397Z,17.43
2022-09-03T07:13:01.562Z,17.54
2022-09-03T07:15:02.900Z,17.4
2022-09-03T07:17:04.424Z,17.48
2022-09-03T07:19:05.881Z,17.58
2022-09-03T07:21:07.477Z,17.65
2022-09-03T07:23:09.104Z,17.74
2022-09-03T07:25:10.305Z,17.63
2022-09-03T07:27:15.016Z,17.84
2022-09-03T07:29:13.418Z,18.09
2022-09-03T07:31:14.548Z,18.17
2022-09-03T07:33:16.372Z,18.19
2022-09-03T07:35:17.743Z,18.28
2022-09-03T07:37:18.783Z,18.08
2022-09-03T07:39:20.641Z,18.04
2022-09-03T07:41:28.611Z,18.04
2022-09-03T07:43:22.778Z,18
2022-09-03T07:45:24.104Z,18.16
2022-09-03T07:47:26.955Z,18.25
2022-09-03T07:49:27.252Z,18.52
2022-09-03T07:51:28.961Z,18.67
2022-09-03T07:53:31.549Z,19.08
2022-09-03T07:55:32.699Z,19.17
2022-09-03T07:57:34.335Z,19
2022-09-03T07:59:35.412Z,19.3
2022-09-03T08:01:36.818Z,19.53
2022-09-03T08:03:37.887Z,20.04
2022-09-03T08:05:39.178Z,19.97
2022-09-03T08:07:40.985Z,20.8
2022-09-03T08:09:42.640Z,20.18
2022-09-03T08:11:44.309Z,20.09
2022-09-03T08:13:45.124Z,20.3
2022-09-03T08:15:46.823Z,20.55
2022-09-03T08:17:47.947Z,20.28
2022-09-03T08:19:49.503Z,20.67
2022-09-03T08:21:50.383Z,19.89
2022-09-03T08:23:51.913Z,19.96
2022-09-03T08:25:52.789Z,20.34
2022-09-03T08:27:53.912Z,19.98
2022-09-03T08:29:55.092Z,19.97
2022-09-03T08:31:56.749Z,19.56
2022-09-03T08:33:57.825Z,20.07
2022-09-03T08:35:59.158Z,20.64
2022-09-03T08:38:00.685Z,21.04
2022-09-03T08:40:01.613Z,20.58
2022-09-03T08:42:03.158Z,20.67
2022-09-03T08:44:04.563Z,20.52
2022-09-03T08:46:05.804Z,20.63
2022-09-03T08:48:06.681Z,20.28
2022-09-03T08:50:07.704Z,20.11
2022-09-03T08:52:08.641Z,20.37
2022-09-03T08:54:10.187Z,20.5
2022-09-03T08:56:11.374Z,20.89
2022-09-03T08:58:12.606Z,21.56
2022-09-03T09:00:14.001Z,21.19
2022-09-03T09:02:15.020Z,21.68
2022-09-03T09:04:16.936Z,21.57
2022-09-03T09:06:18.436Z,21.75
2022-09-03T09:08:19.365Z,21.4
2022-09-03T09:10:20.216Z,21.63
2022-09-03T09:12:21.772Z,21.67
2022-09-03T09:14:22.775Z,21.81
2022-09-03T09:16:23.832Z,22.31
2022-09-03T09:18:25.025Z,22.43
2022-09-03T09:20:26.193Z,22.48
2022-09-03T09:22:28.706Z,22.83
2022-09-03T09:24:30.401Z,22.52
2022-09-03T09:26:31.403Z,23.52
2022-09-03T09:28:32.550Z,23.22
2022-09-03T09:30:33.449Z,22.87
2022-09-03T09:32:34.437Z,24.18
2022-09-03T09:36:37.366Z,24.18
2022-09-03T09:38:38.287Z,23.41
2022-09-03T09:40:41.523Z,23.11
2022-09-03T09:42:40.307Z,23.26
2022-09-03T09:44:41.798Z,23.59
2022-09-03T09:46:43.174Z,23.18
2022-09-03T09:48:44.707Z,22.74
2022-09-03T09:50:54.821Z,23.38
2022-09-03T09:52:47.036Z,22.67
2022-09-03T09:54:47.817Z,22.8
2022-09-03T09:56:49.364Z,23.2
2022-09-03T09:58:50.496Z,23.09
2022-09-03T10:00:51.876Z,22.2
2022-09-03T10:02:52.659Z,22.46
2022-09-03T10:04:53.604Z,22.26
2022-09-03T10:06:55.263Z,22.29
2022-09-03T10:08:56.769Z,22.26
2022-09-03T10:10:57.688Z,23.19
2022-09-03T10:12:58.788Z,22.87
2022-09-03T10:15:00.306Z,23.38
2022-09-03T10:17:01.373Z,23.94
2022-09-03T10:19:02.408Z,23.74
2022-09-03T10:21:03.350Z,24.07
2022-09-03T10:23:05.153Z,24.45
2022-09-03T10:25:06.879Z,24.7
2022-09-03T10:27:08.876Z,24.66
2022-09-03T10:29:10.327Z,23.69
2022-09-03T10:31:11.932Z,24.35
2022-09-03T10:33:12.623Z,24.59
2022-09-03T10:35:13.438Z,24.19
2022-09-03T10:37:15.006Z,24.31
2022-09-03T10:39:16.708Z,24.44
2022-09-03T10:41:17.912Z,24.92
2022-09-03T10:43:18.664Z,24.83
2022-09-03T10:45:19.706Z,23.72
2022-09-03T10:47:20.710Z,23.68
2022-09-03T10:49:21.932Z,23.8
2022-09-03T10:51:22.881Z,23.75
2022-09-03T10:53:24.291Z,23.89
2022-09-03T10:55:25.529Z,24.23
2022-09-03T10:57:26.320Z,25.37
2022-09-03T10:59:29.136Z,25.16
2022-09-03T11:01:28.458Z,24.88
2022-09-03T11:03:29.974Z,24.75
2022-09-03T11:05:31.049Z,24.83
2022-09-03T11:07:32.021Z,24.82
2022-09-03T11:09:33.426Z,24.44
2022-09-03T11:11:34.794Z,24.85
2022-09-03T11:13:35.939Z,25.04
2022-09-03T11:17:39.117Z,24.82
2022-09-03T11:19:40.839Z,24.61
2022-09-03T11:21:42.313Z,25
2022-09-03T11:23:43.266Z,25.61
2022-09-03T11:25:44.549Z,25.46
2022-09-03T11:27:46.102Z,25.17
2022-09-03T11:29:47.004Z,25.01
2022-09-03T11:31:48.371Z,24.69
2022-09-03T11:33:50.090Z,24.11
2022-09-03T11:35:51.398Z,24.87
2022-09-03T11:37:52.884Z,25.74
2022-09-03T11:39:53.764Z,24.04
2022-09-03T11:41:55.316Z,24.38
2022-09-03T11:43:56.059Z,24.78
2022-09-03T11:45:57.029Z,25.68
2022-09-03T11:47:58.643Z,26.03
2022-09-03T11:50:00.151Z,26.06
2022-09-03T11:52:01.286Z,25.44
2022-09-03T11:54:02.837Z,25.33
2022-09-03T11:56:04.787Z,25.17
2022-09-03T11:58:05.483Z,24.43
2022-09-03T12:00:06.557Z,24.4
2022-09-03T12:02:07.890Z,24.61
2022-09-03T12:04:08.892Z,24.56
2022-09-03T12:06:10.456Z,24.24
2022-09-03T12:08:12.030Z,24.53
2022-09-03T12:10:13.591Z,25.01
2022-09-03T12:12:15.327Z,24.88
2022-09-03T12:14:17.008Z,24.62
2022-09-03T12:16:18.687Z,24.36
2022-09-03T12:18:20.068Z,24.52
2022-09-03T12:20:21.212Z,24.68
2022-09-03T12:22:22.963Z,24.11
2022-09-03T12:24:25.223Z,24.42
2022-09-03T12:26:26.118Z,24.57
2022-09-03T12:28:27.201Z,24.82
2022-09-03T12:30:28.475Z,25.18
2022-09-03T12:32:29.940Z,25.36
2022-09-03T12:34:31.523Z,25.35
2022-09-03T12:36:32.796Z,24.91
2022-09-03T12:38:40.696Z,25.08
2022-09-03T12:40:34.633Z,25.08
2022-09-03T12:42:35.945Z,25.13
2022-09-03T12:44:37.001Z,25.12
2022-09-03T12:46:38.129Z,24.82
2022-09-03T12:48:40.554Z,24.78
2022-09-03T12:50:42.346Z,24.83
2022-09-03T12:52:41.102Z,24.83
2022-09-03T12:54:42.422Z,24.82
2022-09-03T12:56:43.536Z,24.68
2022-09-03T12:58:44.909Z,24.11
2022-09-03T13:00:46.261Z,24.28
2022-09-03T13:02:47.700Z,24.3
2022-09-03T13:04:48.499Z,24.09
2022-09-03T13:06:49.934Z,23.9
2022-09-03T13:09:35.279Z,23.36
2022-09-03T13:11:36.259Z,23.57
2022-09-03T13:13:37.792Z,23.78
2022-09-03T13:15:39.441Z,24.06
2022-09-03T13:17:40.942Z,23.99
2022-09-03T13:19:41.887Z,24.26
2022-09-03T13:21:43.242Z,24.23
2022-09-03T13:23:45.018Z,24.02
2022-09-03T13:25:46.584Z,24.3
2022-09-03T13:27:48.308Z,24.08
2022-09-03T13:29:49.790Z,24.14
2022-09-03T13:31:50.681Z,24.19
2022-09-03T13:33:51.626Z,24.29
2022-09-03T13:35:52.688Z,24.42
2022-09-03T13:37:53.944Z,24.47
2022-09-03T13:39:54.903Z,24.7
2022-09-03T13:41:55.807Z,24.24
2022-09-03T13:43:57.499Z,24.59
2022-09-03T13:45:58.766Z,24.38
2022-09-03T13:47:59.793Z,24.31
2022-09-03T13:50:01.091Z,24.3
2022-09-03T13:52:02.867Z,24.12
2022-09-03T13:54:04.567Z,24.49
2022-09-03T13:56:05.495Z,24.91
2022-09-03T13:58:07.079Z,25.18
2022-09-03T14:00:08.730Z,25.51
2022-09-03T14:02:10.361Z,25.44
2022-09-03T14:04:12.099Z,25.07
2022-09-03T14:06:14.481Z,25.08
2022-09-03T14:08:14.398Z,25.93
2022-09-03T14:10:16.142Z,25.8
2022-09-03T14:12:17.298Z,25.65
2022-09-03T14:14:19.025Z,25.6
2022-09-03T14:16:20.077Z,25.18
2022-09-03T14:18:21.219Z,25.2
2022-09-03T14:20:22.752Z,25.43
2022-09-03T14:22:24.490Z,25.12
2022-09-03T14:24:26.206Z,25.45
2022-09-03T14:26:38.467Z,24.3
2022-09-03T14:28:29.533Z,24.83
2022-09-03T14:30:29.656Z,24.82
2022-09-03T14:32:31.151Z,25.13
2022-09-03T14:34:32.474Z,25.64
2022-09-03T14:36:33.597Z,25.58
2022-09-03T14:38:34.857Z,26.18
2022-09-03T14:40:36.242Z,26.06
2022-09-03T14:42:37.328Z,25.7
2022-09-03T14:44:38.166Z,25.42
2022-09-03T14:46:39.071Z,25.05
2022-09-03T14:48:40.050Z,24.61
2022-09-03T14:50:41.377Z,24.79
2022-09-03T14:52:42.464Z,24.54
2022-09-03T14:54:43.680Z,24.2
2022-09-03T14:56:44.776Z,24.42
2022-09-03T14:58:45.909Z,24.38
2022-09-03T15:00:47.560Z,24.14
2022-09-03T15:02:48.476Z,24.11
2022-09-03T15:04:49.387Z,24.1
2022-09-03T15:06:51.142Z,23.97
2022-09-03T15:08:53.161Z,24.01
2022-09-03T15:10:56.635Z,24
2022-09-03T15:12:55.482Z,23.89
2022-09-03T15:16:58.153Z,23.85
2022-09-03T15:18:59.536Z,23.96
2022-09-03T15:21:01.068Z,23.82
2022-09-03T15:23:02.845Z,23.65
2022-09-03T15:25:03.970Z,23.79
2022-09-03T15:27:05.639Z,23.75
2022-09-03T15:29:07.106Z,23.73
2022-09-03T15:31:08.875Z,23.68
2022-09-03T15:33:09.970Z,23.52
2022-09-03T15:35:11.061Z,23.4
2022-09-03T15:37:12.444Z,23.23
2022-09-03T15:39:13.662Z,22.93
2022-09-03T15:41:14.431Z,22.44
2022-09-03T15:43:15.972Z,22.26
2022-09-03T15:45:16.933Z,21.69
2022-09-03T15:47:18.029Z,21.79
2022-09-03T15:49:19.171Z,21.23
2022-09-03T15:51:20.588Z,20.85
2022-09-03T15:53:22.189Z,20.87
2022-09-03T15:55:23.452Z,20.29
2022-09-03T15:57:25.012Z,20.08
2022-09-03T15:59:26.165Z,20.46
2022-09-03T16:01:27.604Z,20.25
2022-09-03T16:03:29.370Z,20.17
2022-09-03T16:05:30.418Z,20.04
2022-09-03T16:07:31.918Z,19.75
2022-09-03T16:09:33.491Z,19.64
2022-09-03T16:11:35.210Z,19.52
2022-09-03T16:13:36.977Z,19.42
2022-09-03T16:15:37.922Z,19.49
2022-09-03T16:17:39.355Z,19.42
2022-09-03T16:19:40.787Z,19.35
2022-09-03T16:21:41.880Z,19.45
2022-09-03T16:23:42.728Z,19.49
2022-09-03T16:25:43.885Z,19.76
2022-09-03T16:27:45.435Z,19.85
2022-09-03T16:29:46.290Z,19.89
2022-09-03T16:31:47.427Z,20.01
2022-09-03T16:33:48.727Z,20.51
2022-09-03T16:35:50.342Z,20.74
2022-09-03T16:37:51.965Z,20.7
2022-09-03T16:39:53.208Z,20.65
2022-09-03T16:41:54.856Z,20.65
2022-09-03T16:43:56.506Z,20.57
2022-09-03T16:45:58.731Z,20.54
2022-09-03T16:47:59.248Z,20.44
2022-09-03T16:50:00.458Z,20.33
2022-09-03T16:52:01.791Z,20.13
2022-09-03T16:54:03.385Z,19.93
2022-09-03T16:56:04.662Z,19.88
2022-09-03T16:58:06.284Z,19.9
2022-09-03T17:00:08.091Z,19.87
2022-09-03T17:02:23.934Z,19.87
2022-09-03T17:04:10.961Z,19.87
2022-09-03T17:06:12.571Z,19.85
2022-09-03T17:08:14.045Z,19.83
2022-09-03T17:10:15.517Z,19.83
2022-09-03T17:12:16.508Z,19.83
2022-09-03T17:14:18.071Z,19.78
2022-09-03T17:16:24.569Z,19.79
2022-09-03T17:18:20.283Z,19.74
2022-09-03T17:20:21.864Z,19.71
2022-09-03T17:22:23.214Z,19.15
2022-09-03T17:24:24.414Z,19.06
2022-09-03T17:26:25.793Z,19.02
2022-09-03T17:28:27.329Z,19.01
2022-09-03T17:30:28.691Z,18.95
2022-09-03T17:32:29.906Z,18.94
2022-09-03T17:34:31.225Z,18.91
2022-09-03T17:36:32.565Z,18.96
2022-09-03T17:40:36.065Z,18.87
2022-09-03T17:42:37.437Z,18.78
2022-09-03T17:44:38.425Z,18.57
2022-09-03T17:46:40.148Z,18.36
2022-09-03T17:48:41.197Z,18.21
2022-09-03T17:50:42.374Z,18.11
2022-09-03T17:52:43.343Z,18.04
2022-09-03T17:54:44.884Z,17.97
2022-09-03T17:56:46.154Z,17.89
2022-09-03T17:58:47.095Z,17.91
2022-09-03T18:00:48.811Z,17.87
2022-09-03T18:02:49.965Z,17.85
2022-09-03T18:04:51.735Z,17.91
2022-09-03T18:06:53.071Z,17.98
2022-09-03T18:08:54.388Z,17.96
2022-09-03T18:10:55.681Z,17.86
2022-09-03T18:12:57.979Z,17.8
2022-09-03T18:14:57.895Z,17.76
2022-09-03T18:16:59.550Z,17.71
2022-09-03T18:19:00.830Z,17.57
2022-09-03T18:21:22.184Z,17.42
2022-09-03T18:23:03.639Z,17.38
2022-09-03T18:25:04.765Z,17.33
2022-09-03T18:27:06.178Z,17.28
2022-09-03T18:29:07.889Z,17.18
2022-09-03T18:31:09.623Z,17.14
2022-09-03T18:33:11.173Z,17.2
2022-09-03T18:35:12.381Z,17.31
2022-09-03T18:37:13.522Z,17.37
2022-09-03T18:39:14.681Z,17.38
2022-09-03T18:41:17.216Z,17.32
2022-09-03T18:43:17.109Z,17.33
2022-09-03T18:45:21.807Z,17.32
2022-09-03T18:48:01.372Z,17.39
2022-09-03T18:49:20.754Z,17.39
2022-09-03T18:51:22.033Z,17.34
2022-09-03T18:53:31.581Z,17.35
2022-09-03T18:55:24.626Z,17.38
2022-09-03T18:57:25.950Z,17.26
2022-09-03T18:59:27.383Z,17.08
2022-09-03T19:01:29.228Z,16.9
2022-09-03T19:03:30.353Z,16.63
2022-09-03T19:05:31.626Z,16.49
2022-09-03T19:07:32.640Z,16.45
2022-09-03T19:09:34.160Z,16.57
2022-09-03T19:11:35.903Z,16.5
2022-09-03T19:13:36.981Z,16.54
2022-09-03T19:15:38.688Z,16.59
2022-09-03T19:17:39.537Z,16.62
2022-09-03T19:21:42.519Z,16.4
2022-09-03T19:23:44.002Z,16.22
2022-09-03T19:25:45.882Z,16.11
2022-09-03T19:27:55.499Z,16.12
2022-09-03T19:29:49.652Z,16.09
2022-09-03T19:31:50.808Z,16.06
2022-09-03T19:33:51.844Z,16
2022-09-03T19:35:52.760Z,15.95
2022-09-03T19:37:54.143Z,15.92
2022-09-03T19:39:55.734Z,15.88
2022-09-03T19:41:57.423Z,15.85
2022-09-03T19:43:58.460Z,15.8
2022-09-03T19:45:59.954Z,15.85
2022-09-03T19:48:01.191Z,15.91
2022-09-03T19:50:02.179Z,15.88
2022-09-03T19:52:03.624Z,15.8
2022-09-03T19:54:48.304Z,15.78
2022-09-03T19:56:49.634Z,15.77
2022-09-03T19:58:51.089Z,15.67
2022-09-03T20:00:52.637Z,15.65
2022-09-03T20:02:54.394Z,15.64
2022-09-03T20:04:56.045Z,15.64
2022-09-03T20:06:57.241Z,15.62
2022-09-03T20:08:58.841Z,15.72
2022-09-03T20:10:59.733Z,15.65
2022-09-03T20:13:00.915Z,15.54
2022-09-03T20:15:01.989Z,15.56
2022-09-03T20:17:02.935Z,15.54
2022-09-03T20:19:04.165Z,15.52
2022-09-03T20:21:05.395Z,15.42
2022-09-03T20:23:06.700Z,15.41
2022-09-03T20:25:08.544Z,15.32
2022-09-03T20:27:10.382Z,15.39
2022-09-03T20:29:11.904Z,15.44
2022-09-03T20:31:13.823Z,15.43
2022-09-03T20:33:15.576Z,15.38
2022-09-03T20:35:16.515Z,15.27
2022-09-03T20:37:18.068Z,15.2
2022-09-03T20:39:19.335Z,15.16
2022-09-03T20:41:20.588Z,15.21
2022-09-03T20:43:21.780Z,15.1
2022-09-03T20:45:23.406Z,15.09
2022-09-03T20:47:24.912Z,15.06
2022-09-03T20:49:26.268Z,15.06
2022-09-03T20:51:27.309Z,15.04
2022-09-03T20:53:28.847Z,14.9
2022-09-03T20:55:30.170Z,14.83
2022-09-03T20:57:31.467Z,14.76
2022-09-03T20:59:32.763Z,14.67
2022-09-03T21:01:34.680Z,14.63
2022-09-03T21:03:35.632Z,14.66
2022-09-03T21:05:36.578Z,14.55
2022-09-03T21:07:40.100Z,14.5
2022-09-03T21:09:39.959Z,14.5
2022-09-03T21:11:41.291Z,14.59
2022-09-03T21:13:43.164Z,14.76
2022-09-03T21:15:44.619Z,14.84
2022-09-03T21:17:46.368Z,14.91
2022-09-03T21:19:48.173Z,14.88
2022-09-03T21:21:49.176Z,14.95
2022-09-03T21:23:50.577Z,14.89
2022-09-03T21:25:51.880Z,14.86
2022-09-03T21:27:52.911Z,14.82
2022-09-03T21:29:54.401Z,14.79
2022-09-03T21:31:55.425Z,14.73
2022-09-03T21:33:56.370Z,14.66
2022-09-03T21:35:57.300Z,14.54
2022-09-03T21:40:00.239Z,14.47
2022-09-03T21:42:01.796Z,14.36
2022-09-03T21:44:02.864Z,14.31
2022-09-03T21:46:04.404Z,14.3
2022-09-03T21:48:05.409Z,14.28
2022-09-03T21:50:07.278Z,14.29
2022-09-03T21:52:08.372Z,14.35
2022-09-03T21:54:10.039Z,14.41
2022-09-03T21:56:11.146Z,14.39
2022-09-03T21:58:12.876Z,14.29
2022-09-03T22:00:14.641Z,14.28
2022-09-03T22:02:16.159Z,14.31
2022-09-03T22:04:17.252Z,14.25
2022-09-03T22:06:21.472Z,14.17
2022-09-03T22:08:20.665Z,14.26
2022-09-03T22:10:22.172Z,14.28
2022-09-03T22:12:23.131Z,14.25
2022-09-03T22:14:24.723Z,14.22
2022-09-03T22:16:26.213Z,14.13
2022-09-03T22:18:28.618Z,14.08
2022-09-03T22:20:28.939Z,13.94
2022-09-03T22:22:30.024Z,14.06
2022-09-03T22:24:31.911Z,13.97
2022-09-03T22:26:33.459Z,13.89
2022-09-03T22:28:34.658Z,13.99
2022-09-03T22:30:36.167Z,14.01
2022-09-03T22:32:37.895Z,13.91
2022-09-03T22:34:38.922Z,13.91
2022-09-03T22:36:40.428Z,13.88
2022-09-03T22:38:41.860Z,13.89
2022-09-03T22:40:43.095Z,13.89
2022-09-03T22:42:44.979Z,13.79
2022-09-03T22:44:46.297Z,13.78
2022-09-03T22:46:47.312Z,13.76
2022-09-03T22:48:48.874Z,13.69
2022-09-03T22:50:50.479Z,13.64
2022-09-03T22:52:51.438Z,13.67
2022-09-03T22:54:52.525Z,13.69
2022-09-03T22:56:53.472Z,13.7
2022-09-03T22:58:54.609Z,13.65
2022-09-03T23:00:56.115Z,13.75
2022-09-03T23:02:57.715Z,13.8
2022-09-03T23:04:59.019Z,13.76
2022-09-03T23:07:00.818Z,13.77
2022-09-03T23:09:01.907Z,13.76
2022-09-03T23:11:02.994Z,13.71
2022-09-03T23:13:04.318Z,13.68
2022-09-03T23:15:06.027Z,13.58
2022-09-03T23:17:07.173Z,13.72
2022-09-03T23:19:08.113Z,13.59
2022-09-03T23:21:09.951Z,13.5
2022-09-03T23:23:11.820Z,13.54
2022-09-03T23:25:13.293Z,13.62
2022-09-03T23:27:15.040Z,13.64
2022-09-03T23:29:16.376Z,13.58
2022-09-03T23:31:18.066Z,13.52
2022-09-03T23:33:19.889Z,13.38
2022-09-03T23:35:21.285Z,13.34
2022-09-03T23:37:33.283Z,13.34
2022-09-03T23:39:24.067Z,13.33
2022-09-03T23:41:25.857Z,13.31
2022-09-03T23:43:26.962Z,13.18
2022-09-03T23:45:28.526Z,13.1
2022-09-03T23:47:30.234Z,13.31
2022-09-03T23:49:31.937Z,13.31
2022-09-03T23:51:33.475Z,13.28
2022-09-03T23:53:35.232Z,13.33
2022-09-03T23:55:37.029Z,13.32
2022-09-03T23:57:38.155Z,13.33
2022-09-03T23:59:39.494Z,13.3
